Time;durP1;ratioP1;P1;durP2;ratioP2;P2;SDS_P1;SDS_P2;PMS_P1;PMS_P2;Temp;Humidity;BMP_temperature;BMP_pressure;BME280_temperature;BME280_humidity;BME280_pressure;Samples;Min_cycle;Max_cycle;Signal;HPM_P1;HPM_P2
2023/02/07 00:04:08;;;;;;;24.50;17.20;;;;;;;;;;10337476;28;20068;-68
2023/02/07 00:09:07;;;;;;;21.27;15.55;;;;;;;;;;10334729;28;20070;-68
2023/02/07 00:14:05;;;;;;;28.15;18.92;;;;;;;;;;10336357;28;20549;-68
2023/02/07 00:19:05;;;;;;;26.15;20.35;;;;;;;;;;10332368;28;20086;-68
2023/02/07 00:24:03;;;;;;;37.00;24.60;;;;;;;;;;10333096;28;20068;-69
2023/02/07 00:29:01;;;;;;;38.33;27.98;;;;;;;;;;10335169;28;20087;-69
2023/02/07 00:34:00;;;;;;;19.42;15.65;;;;;;;;;;10338383;28;20095;-68
2023/02/07 00:39:02;;;;;;;17.52;14.82;;;;;;;;;;10336575;28;20461;-68
2023/02/07 00:44:01;;;;;;;24.30;18.25;;;;;;;;;;10334103;28;20045;-67
2023/02/07 00:48:59;;;;;;;27.92;19.60;;;;;;;;;;10333568;28;20062;-68
2023/02/07 00:53:57;;;;;;;23.02;16.02;;;;;;;;;;10317814;28;20544;-67
2023/02/07 00:58:57;;;;;;;20.67;15.55;;;;;;;;;;10324352;28;20051;-68
2023/02/07 01:03:55;;;;;;;27.50;19.98;;;;;;;;;;10317807;28;20531;-67
2023/02/07 01:08:56;;;;;;;29.58;22.05;;;;;;;;;;10332275;28;20072;-67
2023/02/07 01:13:54;;;;;;;29.50;22.23;;;;;;;;;;10333036;28;20067;-68
2023/02/07 01:18:54;;;;;;;31.73;22.50;;;;;;;;;;10333611;28;20087;-68
2023/02/07 01:23:55;;;;;;;28.83;21.35;;;;;;;;;;10334970;28;20071;-68
2023/02/07 01:28:54;;;;;;;33.97;25.38;;;;;;;;;;10330450;28;20076;-68
2023/02/07 01:33:57;;;;;;;31.15;22.88;;;;;;;;;;10333011;28;20060;-68
2023/02/07 01:38:55;;;;;;;21.95;16.52;;;;;;;;;;10331087;28;20494;-68
2023/02/07 01:43:55;;;;;;;22.45;19.40;;;;;;;;;;10335376;28;20068;-68
2023/02/07 01:48:55;;;;;;;26.80;23.17;;;;;;;;;;10332393;28;20072;-68
2023/02/07 01:53:56;;;;;;;28.05;21.33;;;;;;;;;;10330644;28;20290;-68
2023/02/07 01:58:55;;;;;;;33.80;23.52;;;;;;;;;;10334412;28;20060;-68
2023/02/07 02:03:54;;;;;;;22.65;17.10;;;;;;;;;;10333076;28;20072;-67
2023/02/07 02:08:54;;;;;;;28.80;19.42;;;;;;;;;;10328494;28;20553;-67
2023/02/07 02:13:57;;;;;;;56.05;31.67;;;;;;;;;;10328528;28;20072;-67
2023/02/07 02:19:10;;;;;;;41.35;24.63;;;;;;;;;;10326672;28;20076;-67
2023/02/07 02:24:20;;;;;;;22.33;18.52;;;;;;;;;;10332053;28;20064;-68
2023/02/07 02:29:31;;;;;;;42.42;32.03;;;;;;;;;;10331393;28;20072;-67
2023/02/07 02:34:34;;;;;;;39.58;28.90;;;;;;;;;;10324842;28;20095;-68
2023/02/07 02:39:36;;;;;;;30.35;21.20;;;;;;;;;;10333234;28;20064;-68
2023/02/07 02:44:37;;;;;;;25.00;19.85;;;;;;;;;;10315410;28;20498;-68
2023/02/07 02:49:37;;;;;;;28.65;21.17;;;;;;;;;;10324873;28;20334;-68
2023/02/07 02:54:35;;;;;;;30.20;23.25;;;;;;;;;;10310859;28;20048;-67
2023/02/07 02:59:53;;;;;;;25.30;19.15;;;;;;;;;;10327804;28;20064;-68
2023/02/07 03:05:10;;;;;;;23.55;17.58;;;;;;;;;;10315445;28;20429;-67
2023/02/07 03:10:14;;;;;;;20.67;16.75;;;;;;;;;;10326196;28;20087;-68
2023/02/07 03:15:15;;;;;;;31.73;23.67;;;;;;;;;;10331510;28;20055;-67
2023/02/07 03:20:17;;;;;;;38.33;28.17;;;;;;;;;;10319396;28;20072;-67
2023/02/07 03:25:18;;;;;;;30.40;23.05;;;;;;;;;;10337841;28;20068;-67
2023/02/07 03:30:18;;;;;;;67.85;39.20;;;;;;;;;;10321516;28;20556;-69
2023/02/07 03:35:20;;;;;;;49.60;31.92;;;;;;;;;;10338534;28;20076;-69
2023/02/07 03:40:20;;;;;;;33.03;22.98;;;;;;;;;;10335781;28;20063;-69
2023/02/07 03:45:19;;;;;;;28.48;20.65;;;;;;;;;;10335340;28;20047;-68
2023/02/07 03:50:18;;;;;;;38.42;26.98;;;;;;;;;;10338313;28;20078;-67
2023/02/07 03:55:16;;;;;;;39.78;27.27;;;;;;;;;;10331565;28;20107;-68
2023/02/07 04:00:16;;;;;;;40.55;26.83;;;;;;;;;;10337125;28;20060;-68
2023/02/07 04:05:14;;;;;;;42.85;30.15;;;;;;;;;;10337696;28;20454;-68
2023/02/07 04:10:12;;;;;;;46.15;32.75;;;;;;;;;;10334440;28;20488;-69
2023/02/07 04:15:10;;;;;;;40.30;33.00;;;;;;;;;;10335806;28;20071;-68
2023/02/07 04:20:11;;;;;;;31.23;24.17;;;;;;;;;;10336410;28;20064;-69
2023/02/07 04:25:09;;;;;;;35.47;25.17;;;;;;;;;;10335013;28;20037;-68
2023/02/07 04:30:08;;;;;;;26.88;20.90;;;;;;;;;;10333531;28;20071;-69
2023/02/07 04:35:07;;;;;;;23.70;18.60;;;;;;;;;;10334957;28;20553;-68
2023/02/07 04:40:07;;;;;;;29.95;22.50;;;;;;;;;;10333346;28;20087;-69
2023/02/07 04:45:05;;;;;;;34.50;27.45;;;;;;;;;;10334256;28;20068;-69
2023/02/07 04:50:03;;;;;;;47.03;33.38;;;;;;;;;;10338725;28;20076;-68
2023/02/07 04:55:02;;;;;;;57.90;30.83;;;;;;;;;;10336207;28;20067;-70
2023/02/07 05:00:02;;;;;;;48.60;29.20;;;;;;;;;;10336660;28;20076;-68
2023/02/07 05:05:00;;;;;;;64.85;44.63;;;;;;;;;;10335412;28;20458;-68
2023/02/07 05:09:58;;;;;;;37.28;28.08;;;;;;;;;;10332851;28;20080;-70
2023/02/07 05:14:56;;;;;;;59.25;40.83;;;;;;;;;;10332366;28;20502;-69
2023/02/07 05:19:57;;;;;;;40.08;29.75;;;;;;;;;;10329731;28;20067;-68
2023/02/07 05:24:55;;;;;;;42.83;30.30;;;;;;;;;;10333416;28;20064;-68
2023/02/07 05:29:54;;;;;;;59.15;42.35;;;;;;;;;;10337789;28;20075;-68
2023/02/07 05:34:54;;;;;;;75.85;49.60;;;;;;;;;;10327349;28;20087;-68
2023/02/07 05:39:53;;;;;;;49.13;34.75;;;;;;;;;;10337229;28;20064;-68
2023/02/07 05:44:51;;;;;;;32.83;25.52;;;;;;;;;;10330715;28;20079;-68
2023/02/07 05:49:50;;;;;;;29.30;21.35;;;;;;;;;;10328541;28;20535;-68
2023/02/07 05:54:48;;;;;;;29.50;22.77;;;;;;;;;;10334833;28;20308;-68
2023/02/07 05:59:48;;;;;;;33.53;24.45;;;;;;;;;;10331593;28;20087;-68
2023/02/07 06:04:46;;;;;;;52.58;34.38;;;;;;;;;;10327423;28;20067;-70
2023/02/07 06:09:44;;;;;;;64.63;36.33;;;;;;;;;;10328082;28;20072;-69
2023/02/07 06:14:42;;;;;;;94.88;59.55;;;;;;;;;;10330501;28;20064;-69
2023/02/07 06:19:42;;;;;;;74.40;49.50;;;;;;;;;;10308578;28;20079;-70
2023/02/07 06:24:40;;;;;;;46.33;34.13;;;;;;;;;;10326807;28;20099;-69
2023/02/07 06:29:38;;;;;;;39.58;29.40;;;;;;;;;;10328375;28;20510;-69
2023/02/07 06:34:36;;;;;;;36.25;27.08;;;;;;;;;;10330438;28;20488;-69
2023/02/07 06:39:36;;;;;;;29.92;22.52;;;;;;;;;;10330128;28;20068;-69
2023/02/07 06:44:34;;;;;;;40.03;30.02;;;;;;;;;;10330917;28;20064;-69
2023/02/07 06:49:32;;;;;;;40.13;29.38;;;;;;;;;;10329723;28;20076;-69
2023/02/07 06:54:30;;;;;;;36.58;28.40;;;;;;;;;;10339674;28;20082;-69
2023/02/07 06:59:30;;;;;;;45.33;33.28;;;;;;;;;;10346217;28;20079;-69
2023/02/07 07:04:28;;;;;;;30.88;22.83;;;;;;;;;;10342102;28;20543;-70
2023/02/07 07:09:26;;;;;;;48.00;33.83;;;;;;;;;;10345741;28;20086;-69
2023/02/07 07:14:24;;;;;;;47.45;31.05;;;;;;;;;;10348801;28;20104;-69
2023/02/07 07:19:24;;;;;;;41.90;30.25;;;;;;;;;;10344354;28;20071;-69
2023/02/07 07:24:22;;;;;;;49.30;34.60;;;;;;;;;;10361681;28;20071;-70
2023/02/07 07:29:20;;;;;;;136.25;85.05;;;;;;;;;;10353407;28;20080;-69
2023/02/07 07:34:18;;;;;;;61.22;39.95;;;;;;;;;;10349238;28;20064;-69
2023/02/07 07:39:20;;;;;;;61.53;39.55;;;;;;;;;;10340127;28;20063;-69
2023/02/07 07:44:18;;;;;;;57.85;40.83;;;;;;;;;;10327765;28;20071;-69
2023/02/07 07:49:17;;;;;;;63.78;40.60;;;;;;;;;;10352903;28;20083;-69
2023/02/07 07:54:15;;;;;;;37.80;28.73;;;;;;;;;;10345608;28;20592;-69
2023/02/07 07:59:15;;;;;;;33.45;24.55;;;;;;;;;;10351115;28;20071;-69
2023/02/07 08:04:21;;;;;;;40.38;28.33;;;;;;;;;;10336291;28;20095;-70
2023/02/07 08:09:19;;;;;;;36.47;25.02;;;;;;;;;;10334854;28;20544;-70
2023/02/07 08:14:18;;;;;;;23.25;15.35;;;;;;;;;;10336703;28;20071;-70
2023/02/07 08:19:17;;;;;;;20.13;14.60;;;;;;;;;;10336694;28;20075;-70
2023/02/07 08:24:15;;;;;;;20.77;14.48;;;;;;;;;;10344480;28;20060;-70
2023/02/07 08:29:13;;;;;;;35.20;19.55;;;;;;;;;;10341437;28;20063;-70
2023/02/07 08:34:13;;;;;;;26.60;14.80;;;;;;;;;;10337157;28;20090;-72
2023/02/07 08:39:11;;;;;;;19.65;15.60;;;;;;;;;;10335090;28;20085;-72
2023/02/07 08:44:09;;;;;;;12.95;8.90;;;;;;;;;;10335978;28;20485;-73
2023/02/07 08:49:07;;;;;;;14.32;11.77;;;;;;;;;;10334486;28;20355;-72
2023/02/07 08:54:07;;;;;;;18.25;12.60;;;;;;;;;;10336155;28;20067;-72
2023/02/07 08:59:05;;;;;;;11.77;9.48;;;;;;;;;;10332250;28;20071;-72
2023/02/07 09:04:03;;;;;;;10.85;9.38;;;;;;;;;;10335076;28;20071;-72
2023/02/07 09:09:01;;;;;;;14.07;10.63;;;;;;;;;;10341120;28;20074;-72
2023/02/07 09:14:01;;;;;;;15.00;10.70;;;;;;;;;;10337522;28;20083;-72
2023/02/07 09:18:59;;;;;;;19.00;13.45;;;;;;;;;;10338964;28;20075;-72
2023/02/07 09:23:57;;;;;;;104.05;52.20;;;;;;;;;;10339463;28;20079;-72
2023/02/07 09:28:56;;;;;;;24.17;15.73;;;;;;;;;;10334892;28;20086;-72
2023/02/07 09:33:56;;;;;;;18.45;14.13;;;;;;;;;;10327219;28;20083;-72
2023/02/07 09:38:54;;;;;;;34.85;21.40;;;;;;;;;;10342921;28;20055;-73
2023/02/07 09:43:59;;;;;;;27.92;19.88;;;;;;;;;;10334621;28;20126;-72
2023/02/07 09:48:57;;;;;;;;;;;;;;;;;;10343236;28;20068;-71
2023/02/07 09:53:58;;;;;;;15.23;10.52;;;;;;;;;;10353803;28;20022;-71
2023/02/07 09:59:00;;;;;;;14.10;11.05;;;;;;;;;;10325666;28;20070;-72
2023/02/07 10:04:04;;;;;;;14.73;11.75;;;;;;;;;;10325997;28;20063;-72
2023/02/07 10:09:09;;;;;;;12.00;10.00;;;;;;;;;;10324525;28;20146;-71
2023/02/07 10:14:09;;;;;;;;;;;;;;;;;;10327621;28;20079;-72
2023/02/07 10:19:11;;;;;;;17.33;13.05;;;;;;;;;;10334250;28;19947;-72
2023/02/07 10:24:21;;;;;;;19.80;14.95;;;;;;;;;;10326215;28;20070;-72
2023/02/07 10:29:28;;;;;;;25.60;17.48;;;;;;;;;;10326000;28;20505;-72
2023/02/07 10:34:28;;;;;;;26.40;18.85;;;;;;;;;;10331662;28;20207;-72
2023/02/07 10:39:31;;;;;;;20.75;16.70;;;;;;;;;;10327992;28;20076;-72
2023/02/07 10:44:29;;;;;;;25.95;19.63;;;;;;;;;;10327932;28;20060;-72
2023/02/07 10:49:28;;;;;;;47.35;25.80;;;;;;;;;;10325182;28;20091;-72
2023/02/07 10:54:29;;;;;;;21.42;16.20;;;;;;;;;;10333496;28;20071;-72
2023/02/07 10:59:31;;;;;;;19.98;14.20;;;;;;;;;;10331349;28;20075;-72
2023/02/07 11:04:36;;;;;;;13.55;12.02;;;;;;;;;;10327838;28;20074;-71
2023/02/07 11:09:36;;;;;;;15.35;13.05;;;;;;;;;;10328275;28;20080;-72
2023/02/07 11:14:35;;;;;;;16.23;13.25;;;;;;;;;;10344995;28;20037;-71
2023/02/07 11:19:37;;;;;;;27.42;17.02;;;;;;;;;;10329673;28;20044;-72
2023/02/07 11:24:37;;;;;;;23.15;17.45;;;;;;;;;;10331503;28;20496;-72
2023/02/07 11:29:39;;;;;;;31.52;19.02;;;;;;;;;;10323225;28;20531;-72
2023/02/07 11:34:43;;;;;;;22.50;15.93;;;;;;;;;;10332318;28;20490;-72
2023/02/07 11:39:42;;;;;;;20.95;15.40;;;;;;;;;;10338526;28;20064;-72
2023/02/07 11:44:42;;;;;;;18.05;13.77;;;;;;;;;;10339566;28;20071;-72
2023/02/07 11:49:41;;;;;;;12.43;10.50;;;;;;;;;;10343241;28;20082;-72
2023/02/07 11:54:41;;;;;;;15.38;11.77;;;;;;;;;;10336335;28;20064;-72
2023/02/07 11:59:46;;;;;;;21.20;12.93;;;;;;;;;;10337544;28;20063;-72
2023/02/07 12:04:46;;;;;;;16.20;11.40;;;;;;;;;;10339769;28;20079;-72
2023/02/07 12:09:46;;;;;;;11.82;10.48;;;;;;;;;;10337687;28;20071;-73
2023/02/07 12:14:50;;;;;;;15.10;11.95;;;;;;;;;;10331689;28;20523;-72
2023/02/07 12:19:52;;;;;;;15.07;11.18;;;;;;;;;;10336197;28;20063;-72
2023/02/07 12:24:53;;;;;;;16.95;12.05;;;;;;;;;;10334288;28;20067;-72
2023/02/07 12:29:58;;;;;;;13.57;11.00;;;;;;;;;;10336074;28;20068;-71
2023/02/07 12:35:00;;;;;;;11.10;9.60;;;;;;;;;;10330346;28;20446;-71
2023/02/07 12:40:02;;;;;;;19.55;15.13;;;;;;;;;;10340056;28;20059;-71
2023/02/07 12:45:02;;;;;;;11.50;8.80;;;;;;;;;;10313730;28;20102;-71
2023/02/07 12:50:06;;;;;;;11.30;8.95;;;;;;;;;;10322572;28;20124;-72
2023/02/07 12:55:12;;;;;;;18.42;13.30;;;;;;;;;;10321099;28;21040;-72
2023/02/07 13:00:25;;;;;;;15.60;10.05;;;;;;;;;;10331873;28;20129;-72
2023/02/07 13:05:47;;;;;;;17.75;13.18;;;;;;;;;;10300732;28;20092;-71
2023/02/07 13:10:51;;;;;;;18.25;14.00;;;;;;;;;;10312864;28;20091;-71
2023/02/07 13:15:53;;;;;;;17.13;12.07;;;;;;;;;;10332418;28;20060;-71
2023/02/07 13:20:56;;;;;;;10.35;9.27;;;;;;;;;;10320812;28;20064;-71
2023/02/07 13:25:57;;;;;;;20.35;14.60;;;;;;;;;;10333015;28;20085;-71
2023/02/07 13:30:57;;;;;;;11.20;7.22;;;;;;;;;;10337561;28;20075;-72
2023/02/07 13:35:56;;;;;;;20.10;15.43;;;;;;;;;;10338089;28;20080;-72
2023/02/07 13:41:01;;;;;;;13.27;11.05;;;;;;;;;;10335649;28;20332;-73
2023/02/07 13:46:05;;;;;;;17.27;12.15;;;;;;;;;;10319223;28;20064;-73
2023/02/07 13:51:13;;;;;;;29.33;19.30;;;;;;;;;;10320382;28;20096;-73
2023/02/07 14:01:35;;;;;;;12.98;10.02;;;;;;;;;;10339129;28;20056;-72
2023/02/07 14:06:36;;;;;;;24.02;19.88;;;;;;;;;;10330803;28;20076;-72
2023/02/07 14:11:38;;;;;;;24.40;17.25;;;;;;;;;;10339139;28;20076;-72
2023/02/07 14:16:49;;;;;;;13.73;10.93;;;;;;;;;;10332895;28;20500;-73
2023/02/07 14:22:07;;;;;;;19.02;12.88;;;;;;;;;;10337221;28;20626;-72
2023/02/07 14:27:26;;;;;;;12.63;8.35;;;;;;;;;;10336526;28;20072;-72
2023/02/07 14:32:42;;;;;;;19.52;15.40;;;;;;;;;;10332337;28;20080;-73
2023/02/07 14:37:45;;;;;;;17.17;13.60;;;;;;;;;;10333128;28;20114;-72
2023/02/07 14:42:53;;;;;;;17.80;13.17;;;;;;;;;;10336352;28;20044;-73
2023/02/07 14:47:52;;;;;;;15.13;12.15;;;;;;;;;;10339983;28;20098;-72
2023/02/07 14:52:51;;;;;;;41.65;21.13;;;;;;;;;;10327771;28;20110;-73
2023/02/07 14:57:51;;;;;;;54.30;30.48;;;;;;;;;;10312405;28;20076;-73
2023/02/07 15:02:53;;;;;;;15.68;11.95;;;;;;;;;;10343973;28;20071;-73
2023/02/07 15:07:56;;;;;;;28.67;18.65;;;;;;;;;;10311231;28;20079;-73
2023/02/07 15:12:55;;;;;;;32.00;19.73;;;;;;;;;;10340261;28;20072;-72
2023/02/07 15:17:56;;;;;;;24.33;12.00;;;;;;;;;;10340996;28;20416;-72
2023/02/07 15:22:54;;;;;;;52.53;26.05;;;;;;;;;;10345520;28;20470;-72
2023/02/07 15:28:00;;;;;;;43.03;25.08;;;;;;;;;;10338431;28;20082;-72
2023/02/07 15:33:00;;;;;;;51.63;29.45;;;;;;;;;;10335765;28;20091;-71
2023/02/07 15:38:13;;;;;;;30.35;18.70;;;;;;;;;;10334011;28;20078;-71
2023/02/07 15:43:23;;;;;;;52.47;36.97;;;;;;;;;;10332907;28;20746;-72
2023/02/07 15:48:23;;;;;;;72.63;47.72;;;;;;;;;;10337469;28;20079;-72
2023/02/07 15:53:24;;;;;;;51.08;34.70;;;;;;;;;;10338201;28;20082;-71
2023/02/07 15:58:24;;;;;;;41.25;32.83;;;;;;;;;;10339844;28;20072;-71
2023/02/07 16:03:29;;;;;;;33.25;21.88;;;;;;;;;;10338018;28;20084;-71
2023/02/07 16:08:29;;;;;;;63.00;38.25;;;;;;;;;;10332537;28;20600;-71
2023/02/07 16:13:27;;;;;;;91.78;61.30;;;;;;;;;;10336919;28;20381;-72
2023/02/07 16:18:37;;;;;;;69.35;46.80;;;;;;;;;;10338823;28;20067;-72
2023/02/07 16:23:35;;;;;;;98.22;54.58;;;;;;;;;;10343271;28;20525;-70
2023/02/07 16:28:33;;;;;;;67.93;42.20;;;;;;;;;;10334186;28;20063;-71
2023/02/07 16:33:32;;;;;;;46.35;29.40;;;;;;;;;;10334856;28;20493;-71
2023/02/07 16:38:32;;;;;;;95.78;66.70;;;;;;;;;;10336326;28;20076;-71
2023/02/07 16:43:35;;;;;;;58.83;32.03;;;;;;;;;;10335361;28;20071;-71
2023/02/07 16:48:33;;;;;;;74.00;41.83;;;;;;;;;;10330972;28;20075;-71
2023/02/07 16:53:33;;;;;;;51.22;33.20;;;;;;;;;;10338358;28;20076;-71
2023/02/07 16:58:34;;;;;;;46.30;32.05;;;;;;;;;;10335862;28;20076;-70
2023/02/07 17:03:32;;;;;;;40.47;27.42;;;;;;;;;;10336693;28;20071;-70
2023/02/07 17:08:30;;;;;;;40.88;25.67;;;;;;;;;;10320605;28;20102;-70
2023/02/07 17:13:30;;;;;;;29.75;23.60;;;;;;;;;;10329101;28;20079;-70
2023/02/07 17:18:28;;;;;;;30.67;24.08;;;;;;;;;;10319960;28;20076;-70
2023/02/07 17:23:27;;;;;;;33.45;23.55;;;;;;;;;;10329265;28;20059;-71
2023/02/07 17:28:25;;;;;;;30.17;22.13;;;;;;;;;;10332035;28;20079;-71
2023/02/07 17:33:25;;;;;;;31.58;23.17;;;;;;;;;;10328829;28;20076;-70
2023/02/07 17:38:23;;;;;;;63.25;42.13;;;;;;;;;;10331107;28;20059;-72
2023/02/07 17:43:22;;;;;;;43.70;29.95;;;;;;;;;;10333889;28;20067;-70
2023/02/07 17:48:21;;;;;;;61.05;42.15;;;;;;;;;;10324957;28;20141;-70
2023/02/07 17:53:22;;;;;;;35.00;26.10;;;;;;;;;;10335024;28;20075;-71
2023/02/07 17:58:20;;;;;;;46.08;33.55;;;;;;;;;;10334842;28;20075;-71
2023/02/07 18:03:19;;;;;;;73.57;49.28;;;;;;;;;;10328944;28;20076;-71
2023/02/07 18:08:17;;;;;;;88.57;59.45;;;;;;;;;;10323723;28;20461;-71
2023/02/07 18:13:17;;;;;;;49.00;32.25;;;;;;;;;;10329166;28;20075;-71
2023/02/07 18:18:15;;;;;;;78.18;48.67;;;;;;;;;;10337287;28;20067;-71
2023/02/07 18:23:14;;;;;;;67.15;35.88;;;;;;;;;;10339019;28;20068;-71
2023/02/07 18:28:13;;;;;;;37.88;27.10;;;;;;;;;;10336970;28;20501;-72
2023/02/07 18:33:13;;;;;;;35.35;25.30;;;;;;;;;;10339800;28;20084;-72
2023/02/07 18:38:11;;;;;;;44.10;31.08;;;;;;;;;;10331576;28;20067;-70
2023/02/07 18:43:10;;;;;;;45.30;30.58;;;;;;;;;;10341385;28;20067;-69
2023/02/07 18:48:10;;;;;;;44.03;28.95;;;;;;;;;;10323132;28;20082;-70
2023/02/07 18:53:09;;;;;;;37.35;26.50;;;;;;;;;;10339840;28;20539;-70
2023/02/07 18:58:08;;;;;;;36.40;27.35;;;;;;;;;;10332171;28;20076;-70
2023/02/07 19:03:06;;;;;;;38.75;25.95;;;;;;;;;;10341894;28;20075;-70
2023/02/07 19:08:04;;;;;;;61.78;41.78;;;;;;;;;;10334460;28;20661;-69
2023/02/07 19:13:04;;;;;;;57.72;41.65;;;;;;;;;;10329398;28;20068;-70
2023/02/07 19:18:04;;;;;;;59.60;45.25;;;;;;;;;;10336582;28;20068;-70
2023/02/07 19:23:02;;;;;;;29.05;21.80;;;;;;;;;;10330883;28;20072;-70
2023/02/07 19:28:00;;;;;;;40.63;29.85;;;;;;;;;;10344253;28;20068;-70
2023/02/07 19:33:00;;;;;;;39.38;27.98;;;;;;;;;;10341504;28;20076;-69
2023/02/07 19:37:58;;;;;;;33.03;23.85;;;;;;;;;;10340154;28;20090;-69
2023/02/07 19:42:56;;;;;;;33.92;24.58;;;;;;;;;;10340495;28;20528;-68
2023/02/07 19:47:54;;;;;;;40.78;32.83;;;;;;;;;;10347755;28;20117;-69
2023/02/07 19:52:54;;;;;;;50.63;31.70;;;;;;;;;;10355186;28;20509;-68
2023/02/07 19:57:53;;;;;;;50.80;35.63;;;;;;;;;;10353523;28;20064;-68
2023/02/07 20:02:51;;;;;;;39.95;27.42;;;;;;;;;;10354521;28;20079;-69
2023/02/07 20:07:49;;;;;;;73.03;46.80;;;;;;;;;;10350578;28;20060;-69
2023/02/07 20:12:49;;;;;;;94.65;54.30;;;;;;;;;;10336250;28;20078;-69
2023/02/07 20:17:47;;;;;;;50.85;33.40;;;;;;;;;;10336051;28;20068;-69
2023/02/07 20:22:45;;;;;;;58.15;38.28;;;;;;;;;;10354120;28;20068;-69
2023/02/07 20:27:43;;;;;;;46.75;32.90;;;;;;;;;;10339235;28;20079;-69
2023/02/07 20:32:43;;;;;;;48.53;34.50;;;;;;;;;;10342721;28;20204;-69
2023/02/07 20:37:44;;;;;;;52.20;35.15;;;;;;;;;;10355513;28;20068;-69
2023/02/07 20:42:42;;;;;;;57.00;41.60;;;;;;;;;;10345866;28;20595;-70
2023/02/07 20:47:40;;;;;;;56.17;39.47;;;;;;;;;;10342492;28;20072;-69
2023/02/07 20:52:41;;;;;;;52.25;36.67;;;;;;;;;;10347619;28;20067;-70
2023/02/07 20:57:39;;;;;;;43.72;31.83;;;;;;;;;;10345574;28;20115;-70
2023/02/07 21:02:37;;;;;;;39.97;28.27;;;;;;;;;;10345577;28;20063;-69
2023/02/07 21:07:36;;;;;;;47.08;32.70;;;;;;;;;;10348272;28;20067;-69
2023/02/07 21:12:35;;;;;;;48.08;35.03;;;;;;;;;;10335729;28;20492;-70
2023/02/07 21:17:35;;;;;;;43.95;32.15;;;;;;;;;;10332569;28;20074;-70
2023/02/07 21:22:34;;;;;;;40.50;29.15;;;;;;;;;;10341293;28;20071;-70
2023/02/07 21:27:32;;;;;;;39.50;28.63;;;;;;;;;;10335639;28;20083;-70
2023/02/07 21:32:35;;;;;;;38.38;29.17;;;;;;;;;;10333939;28;20087;-70
2023/02/07 21:37:33;;;;;;;40.72;30.33;;;;;;;;;;10330295;28;20071;-71
2023/02/07 21:42:31;;;;;;;52.80;35.80;;;;;;;;;;10332997;28;20082;-71
2023/02/07 21:47:31;;;;;;;55.63;38.10;;;;;;;;;;10340102;28;20080;-71
2023/02/07 21:52:31;;;;;;;54.55;36.50;;;;;;;;;;10336616;28;20926;-71
2023/02/07 21:57:31;;;;;;;58.13;39.83;;;;;;;;;;10346445;28;20166;-71
2023/02/07 22:02:30;;;;;;;57.97;35.92;;;;;;;;;;10344273;28;20056;-69
2023/02/07 22:07:28;;;;;;;50.70;35.50;;;;;;;;;;10337589;28;20060;-69
2023/02/07 22:12:29;;;;;;;53.83;37.42;;;;;;;;;;10332591;28;20080;-70
2023/02/07 22:17:28;;;;;;;54.13;39.22;;;;;;;;;;10338089;28;20079;-69
2023/02/07 22:22:26;;;;;;;52.72;37.53;;;;;;;;;;10332655;28;20083;-70
2023/02/07 22:27:24;;;;;;;59.25;41.53;;;;;;;;;;10332366;28;20631;-70
2023/02/07 22:32:31;;;;;;;52.38;36.55;;;;;;;;;;10332718;28;20071;-70
2023/02/07 22:37:35;;;;;;;49.42;34.63;;;;;;;;;;10332307;28;20068;-70
2023/02/07 22:42:34;;;;;;;42.42;29.27;;;;;;;;;;10330362;28;20486;-69
2023/02/07 22:47:33;;;;;;;49.55;34.03;;;;;;;;;;10317520;28;20068;-70
2023/02/07 22:52:33;;;;;;;45.80;31.90;;;;;;;;;;10333669;28;20086;-69
2023/02/07 22:57:31;;;;;;;41.00;29.98;;;;;;;;;;10325364;28;20072;-70
2023/02/07 23:02:30;;;;;;;34.42;28.10;;;;;;;;;;10338885;28;20067;-69
2023/02/07 23:07:29;;;;;;;44.38;32.92;;;;;;;;;;10336219;28;20087;-70
2023/02/07 23:12:27;;;;;;;50.97;34.85;;;;;;;;;;10337502;28;20742;-70
2023/02/07 23:17:26;;;;;;;40.38;29.23;;;;;;;;;;10338609;28;20068;-69
2023/02/07 23:22:24;;;;;;;42.58;30.95;;;;;;;;;;10335981;28;20063;-69
2023/02/07 23:27:24;;;;;;;34.88;26.95;;;;;;;;;;10338276;28;20068;-70
2023/02/07 23:32:22;;;;;;;37.72;28.08;;;;;;;;;;10330522;28;20087;-71
2023/02/07 23:37:21;;;;;;;45.85;32.85;;;;;;;;;;10340244;28;20098;-71
2023/02/07 23:42:19;;;;;;;48.55;37.15;;;;;;;;;;10341564;28;20106;-71
2023/02/07 23:47:19;;;;;;;45.90;34.00;;;;;;;;;;10342455;28;20078;-71
2023/02/07 23:52:17;;;;;;;42.33;30.95;;;;;;;;;;10344770;28;20075;-71
2023/02/07 23:57:16;;;;;;;41.85;30.60;;;;;;;;;;10341356;28;20080;-71
